Cypress Gardens, Louisiana
Current Conditions -  °F | °C
As of 9:53 AM on Friday 24 Oct 2014 (Local Time) from KNEW Reporting Station
Clear Clear  
Wind Chill: 65°   Ceiling: Unl
Heat Index: 65°   Visibility: 10mi
Dew Point: 53°   Wind: 8mph
Humidity: 65%   Direction: 50°NE
Pressure: 30.13"   Gusts: NA
Location:  29.9486°N, 89.8975°W
Report Text: KNEW 241453Z AUTO 05007KT 10SM CLR 18/12 A3013 RMK AO2 SLP195 T01830117 51011 TSNO
Loading
Personal Weather Stations






























Interactive Weather Map
Tropical Storm Tracking
New forecast layout! Learn more

10-Day Weather Forecast

Advertisements
Track Severe Weather on mobile